sensor_id;sensor_type;location;lat;lon;timestamp;P1;durP1;ratioP1;P2;durP2;ratioP2
74626;SDS011;63132;52.268;5.192;2024-03-29T00:02:13;7.37;;;1.43;;
74626;SDS011;63132;52.268;5.192;2024-03-29T00:04:38;7.60;;;1.60;;
74626;SDS011;63132;52.268;5.192;2024-03-29T00:07:04;7.03;;;1.55;;
74626;SDS011;63132;52.268;5.192;2024-03-29T00:09:29;10.20;;;1.50;;
74626;SDS011;63132;52.268;5.192;2024-03-29T00:11:55;8.60;;;2.13;;
74626;SDS011;63132;52.268;5.192;2024-03-29T00:14:20;6.60;;;1.50;;
74626;SDS011;63132;52.268;5.192;2024-03-29T00:16:46;7.03;;;1.40;;
74626;SDS011;63132;52.268;5.192;2024-03-29T00:21:37;5.72;;;1.05;;
74626;SDS011;63132;52.268;5.192;2024-03-29T00:24:02;8.90;;;1.17;;
74626;SDS011;63132;52.268;5.192;2024-03-29T00:26:27;9.65;;;1.50;;
74626;SDS011;63132;52.268;5.192;2024-03-29T00:28:53;4.53;;;1.40;;
74626;SDS011;63132;52.268;5.192;2024-03-29T00:31:18;5.87;;;1.60;;
74626;SDS011;63132;52.268;5.192;2024-03-29T00:33:43;9.00;;;2.23;;
74626;SDS011;63132;52.268;5.192;2024-03-29T00:36:08;6.80;;;1.20;;
74626;SDS011;63132;52.268;5.192;2024-03-29T00:38:34;10.47;;;1.70;;
74626;SDS011;63132;52.268;5.192;2024-03-29T00:40:59;10.83;;;1.37;;
74626;SDS011;63132;52.268;5.192;2024-03-29T00:43:24;5.37;;;1.30;;
74626;SDS011;63132;52.268;5.192;2024-03-29T00:45:49;5.90;;;1.20;;
74626;SDS011;63132;52.268;5.192;2024-03-29T00:48:15;8.73;;;1.10;;
74626;SDS011;63132;52.268;5.192;2024-03-29T00:50:42;9.00;;;1.38;;
74626;SDS011;63132;52.268;5.192;2024-03-29T00:53:08;7.07;;;1.57;;
74626;SDS011;63132;52.268;5.192;2024-03-29T00:55:33;6.05;;;1.10;;
74626;SDS011;63132;52.268;5.192;2024-03-29T00:57:59;7.60;;;2.40;;
74626;SDS011;63132;52.268;5.192;2024-03-29T01:00:24;8.63;;;1.10;;
74626;SDS011;63132;52.268;5.192;2024-03-29T01:02:49;10.50;;;1.50;;
74626;SDS011;63132;52.268;5.192;2024-03-29T01:05:14;6.37;;;1.50;;
74626;SDS011;63132;52.268;5.192;2024-03-29T01:07:40;7.05;;;1.20;;
74626;SDS011;63132;52.268;5.192;2024-03-29T01:10:06;6.75;;;1.45;;
74626;SDS011;63132;52.268;5.192;2024-03-29T01:12:33;9.52;;;1.13;;
74626;SDS011;63132;52.268;5.192;2024-03-29T01:14:59;5.25;;;0.98;;
74626;SDS011;63132;52.268;5.192;2024-03-29T01:17:24;8.23;;;1.27;;
74626;SDS011;63132;52.268;5.192;2024-03-29T01:19:49;7.77;;;1.40;;
74626;SDS011;63132;52.268;5.192;2024-03-29T01:22:15;5.35;;;1.40;;
74626;SDS011;63132;52.268;5.192;2024-03-29T01:24:40;6.03;;;1.13;;
74626;SDS011;63132;52.268;5.192;2024-03-29T01:27:05;6.97;;;2.17;;
74626;SDS011;63132;52.268;5.192;2024-03-29T01:29:31;8.48;;;1.20;;
74626;SDS011;63132;52.268;5.192;2024-03-29T01:31:57;7.78;;;1.35;;
74626;SDS011;63132;52.268;5.192;2024-03-29T01:34:22;7.00;;;1.07;;
74626;SDS011;63132;52.268;5.192;2024-03-29T01:36:47;6.07;;;1.50;;
74626;SDS011;63132;52.268;5.192;2024-03-29T01:39:12;7.73;;;1.20;;
74626;SDS011;63132;52.268;5.192;2024-03-29T01:41:40;6.10;;;1.10;;
74626;SDS011;63132;52.268;5.192;2024-03-29T01:44:06;5.63;;;1.33;;
74626;SDS011;63132;52.268;5.192;2024-03-29T01:46:31;6.97;;;1.20;;
74626;SDS011;63132;52.268;5.192;2024-03-29T01:49:01;6.00;;;1.00;;
74626;SDS011;63132;52.268;5.192;2024-03-29T01:51:26;5.13;;;1.60;;
74626;SDS011;63132;52.268;5.192;2024-03-29T01:53:52;4.68;;;1.17;;
74626;SDS011;63132;52.268;5.192;2024-03-29T01:58:55;7.35;;;1.30;;
74626;SDS011;63132;52.268;5.192;2024-03-29T02:01:23;4.45;;;1.13;;
74626;SDS011;63132;52.268;5.192;2024-03-29T02:03:51;5.13;;;0.90;;
74626;SDS011;63132;52.268;5.192;2024-03-29T02:06:16;6.15;;;1.30;;
74626;SDS011;63132;52.268;5.192;2024-03-29T02:08:42;6.72;;;1.27;;
74626;SDS011;63132;52.268;5.192;2024-03-29T02:11:08;4.45;;;2.20;;
74626;SDS011;63132;52.268;5.192;2024-03-29T02:13:33;6.53;;;1.45;;
74626;SDS011;63132;52.268;5.192;2024-03-29T02:15:59;7.85;;;1.25;;
74626;SDS011;63132;52.268;5.192;2024-03-29T02:18:24;9.77;;;1.10;;
74626;SDS011;63132;52.268;5.192;2024-03-29T02:20:49;7.27;;;1.40;;
74626;SDS011;63132;52.268;5.192;2024-03-29T02:23:19;6.30;;;1.27;;
74626;SDS011;63132;52.268;5.192;2024-03-29T02:25:51;4.00;;;1.52;;
74626;SDS011;63132;52.268;5.192;2024-03-29T02:28:16;5.00;;;0.93;;
74626;SDS011;63132;52.268;5.192;2024-03-29T02:30:42;6.05;;;1.08;;
74626;SDS011;63132;52.268;5.192;2024-03-29T02:33:10;8.75;;;1.25;;
74626;SDS011;63132;52.268;5.192;2024-03-29T02:35:35;6.03;;;1.30;;
74626;SDS011;63132;52.268;5.192;2024-03-29T02:38:00;10.32;;;1.10;;
74626;SDS011;63132;52.268;5.192;2024-03-29T02:40:26;4.67;;;1.00;;
74626;SDS011;63132;52.268;5.192;2024-03-29T02:42:51;11.13;;;1.53;;
74626;SDS011;63132;52.268;5.192;2024-03-29T02:45:16;7.43;;;1.23;;
74626;SDS011;63132;52.268;5.192;2024-03-29T02:47:42;6.00;;;1.17;;
74626;SDS011;63132;52.268;5.192;2024-03-29T02:50:09;6.30;;;1.60;;
74626;SDS011;63132;52.268;5.192;2024-03-29T02:52:36;6.97;;;1.10;;
74626;SDS011;63132;52.268;5.192;2024-03-29T02:55:02;4.95;;;1.00;;
74626;SDS011;63132;52.268;5.192;2024-03-29T02:57:27;5.32;;;1.05;;
74626;SDS011;63132;52.268;5.192;2024-03-29T02:59:52;10.10;;;2.87;;
74626;SDS011;63132;52.268;5.192;2024-03-29T03:02:18;4.80;;;1.25;;
74626;SDS011;63132;52.268;5.192;2024-03-29T03:04:43;6.47;;;1.20;;
74626;SDS011;63132;52.268;5.192;2024-03-29T03:07:08;12.10;;;1.37;;
74626;SDS011;63132;52.268;5.192;2024-03-29T03:09:52;6.43;;;1.33;;
74626;SDS011;63132;52.268;5.192;2024-03-29T03:12:36;8.57;;;1.30;;
74626;SDS011;63132;52.268;5.192;2024-03-29T03:15:01;6.23;;;1.20;;
74626;SDS011;63132;52.268;5.192;2024-03-29T03:17:27;5.90;;;0.90;;
74626;SDS011;63132;52.268;5.192;2024-03-29T03:19:53;3.97;;;0.75;;
74626;SDS011;63132;52.268;5.192;2024-03-29T03:22:18;5.45;;;1.00;;
74626;SDS011;63132;52.268;5.192;2024-03-29T03:24:44;8.13;;;1.20;;
74626;SDS011;63132;52.268;5.192;2024-03-29T03:27:09;10.23;;;2.63;;
74626;SDS011;63132;52.268;5.192;2024-03-29T03:29:35;3.93;;;0.97;;
74626;SDS011;63132;52.268;5.192;2024-03-29T03:32:00;11.83;;;1.20;;
74626;SDS011;63132;52.268;5.192;2024-03-29T03:34:25;4.50;;;0.93;;
74626;SDS011;63132;52.268;5.192;2024-03-29T03:36:51;8.60;;;1.40;;
74626;SDS011;63132;52.268;5.192;2024-03-29T03:39:16;5.87;;;2.20;;
74626;SDS011;63132;52.268;5.192;2024-03-29T03:41:41;6.45;;;1.10;;
74626;SDS011;63132;52.268;5.192;2024-03-29T03:44:06;4.20;;;0.83;;
74626;SDS011;63132;52.268;5.192;2024-03-29T03:46:32;4.60;;;1.17;;
74626;SDS011;63132;52.268;5.192;2024-03-29T03:48:57;6.33;;;0.97;;
74626;SDS011;63132;52.268;5.192;2024-03-29T03:51:22;4.50;;;1.00;;
74626;SDS011;63132;52.268;5.192;2024-03-29T03:53:47;7.30;;;1.53;;
74626;SDS011;63132;52.268;5.192;2024-03-29T03:56:13;5.60;;;1.50;;
74626;SDS011;63132;52.268;5.192;2024-03-29T03:58:38;2.43;;;0.90;;
74626;SDS011;63132;52.268;5.192;2024-03-29T04:01:04;9.32;;;1.08;;
74626;SDS011;63132;52.268;5.192;2024-03-29T04:03:30;4.15;;;0.90;;
74626;SDS011;63132;52.268;5.192;2024-03-29T04:05:56;4.97;;;1.00;;
74626;SDS011;63132;52.268;5.192;2024-03-29T04:08:21;3.80;;;0.85;;
74626;SDS011;63132;52.268;5.192;2024-03-29T04:10:47;5.03;;;0.80;;
74626;SDS011;63132;52.268;5.192;2024-03-29T04:13:12;7.82;;;1.63;;
74626;SDS011;63132;52.268;5.192;2024-03-29T04:15:38;7.85;;;1.20;;
74626;SDS011;63132;52.268;5.192;2024-03-29T04:18:03;4.10;;;1.00;;
74626;SDS011;63132;52.268;5.192;2024-03-29T04:20:28;3.03;;;0.95;;
74626;SDS011;63132;52.268;5.192;2024-03-29T04:22:54;4.20;;;1.00;;
74626;SDS011;63132;52.268;5.192;2024-03-29T04:25:19;3.17;;;0.90;;
74626;SDS011;63132;52.268;5.192;2024-03-29T04:27:44;4.83;;;1.00;;
74626;SDS011;63132;52.268;5.192;2024-03-29T04:30:10;6.03;;;1.00;;
74626;SDS011;63132;52.268;5.192;2024-03-29T04:32:35;4.03;;;1.13;;
74626;SDS011;63132;52.268;5.192;2024-03-29T04:35:00;3.10;;;1.00;;
74626;SDS011;63132;52.268;5.192;2024-03-29T04:37:26;4.88;;;0.88;;
74626;SDS011;63132;52.268;5.192;2024-03-29T04:39:51;4.70;;;0.90;;
74626;SDS011;63132;52.268;5.192;2024-03-29T04:42:17;5.85;;;0.90;;
74626;SDS011;63132;52.268;5.192;2024-03-29T04:44:42;3.28;;;1.67;;
74626;SDS011;63132;52.268;5.192;2024-03-29T04:47:08;7.00;;;1.00;;
74626;SDS011;63132;52.268;5.192;2024-03-29T04:49:33;6.13;;;1.10;;
74626;SDS011;63132;52.268;5.192;2024-03-29T04:52:00;10.00;;;1.65;;
74626;SDS011;63132;52.268;5.192;2024-03-29T04:54:26;3.38;;;0.77;;
74626;SDS011;63132;52.268;5.192;2024-03-29T04:56:52;6.68;;;0.90;;
74626;SDS011;63132;52.268;5.192;2024-03-29T04:59:17;8.27;;;1.40;;
74626;SDS011;63132;52.268;5.192;2024-03-29T05:01:43;3.80;;;0.95;;
74626;SDS011;63132;52.268;5.192;2024-03-29T05:04:09;2.53;;;0.73;;
74626;SDS011;63132;52.268;5.192;2024-03-29T05:09:00;3.25;;;0.80;;
74626;SDS011;63132;52.268;5.192;2024-03-29T05:11:25;3.53;;;0.60;;
74626;SDS011;63132;52.268;5.192;2024-03-29T05:13:51;1.95;;;0.60;;
74626;SDS011;63132;52.268;5.192;2024-03-29T05:16:16;8.27;;;1.17;;
74626;SDS011;63132;52.268;5.192;2024-03-29T05:18:41;2.27;;;0.53;;
74626;SDS011;63132;52.268;5.192;2024-03-29T05:21:07;4.03;;;0.90;;
74626;SDS011;63132;52.268;5.192;2024-03-29T05:23:34;2.60;;;0.63;;
74626;SDS011;63132;52.268;5.192;2024-03-29T05:26:00;2.20;;;0.77;;
74626;SDS011;63132;52.268;5.192;2024-03-29T05:28:25;2.15;;;0.57;;
74626;SDS011;63132;52.268;5.192;2024-03-29T05:30:54;8.00;;;0.60;;
74626;SDS011;63132;52.268;5.192;2024-03-29T05:33:20;1.08;;;0.40;;
74626;SDS011;63132;52.268;5.192;2024-03-29T05:35:45;1.17;;;0.32;;
74626;SDS011;63132;52.268;5.192;2024-03-29T05:38:10;3.50;;;0.70;;
74626;SDS011;63132;52.268;5.192;2024-03-29T05:40:36;0.23;;;0.23;;
74626;SDS011;63132;52.268;5.192;2024-03-29T05:43:02;0.80;;;0.30;;
74626;SDS011;63132;52.268;5.192;2024-03-29T05:45:28;1.98;;;0.30;;
74626;SDS011;63132;52.268;5.192;2024-03-29T05:47:56;1.20;;;0.40;;
74626;SDS011;63132;52.268;5.192;2024-03-29T05:50:23;1.75;;;0.43;;
74626;SDS011;63132;52.268;5.192;2024-03-29T05:52:50;3.40;;;0.60;;
74626;SDS011;63132;52.268;5.192;2024-03-29T05:55:18;4.32;;;1.17;;
74626;SDS011;63132;52.268;5.192;2024-03-29T05:57:44;6.78;;;0.90;;
74626;SDS011;63132;52.268;5.192;2024-03-29T06:00:13;2.65;;;0.65;;
74626;SDS011;63132;52.268;5.192;2024-03-29T06:05:05;3.03;;;0.40;;
74626;SDS011;63132;52.268;5.192;2024-03-29T06:07:32;2.25;;;0.60;;
74626;SDS011;63132;52.268;5.192;2024-03-29T06:09:58;2.13;;;0.57;;
74626;SDS011;63132;52.268;5.192;2024-03-29T06:12:26;5.55;;;0.82;;
74626;SDS011;63132;52.268;5.192;2024-03-29T06:14:54;1.98;;;0.77;;
74626;SDS011;63132;52.268;5.192;2024-03-29T06:17:38;2.75;;;0.63;;
74626;SDS011;63132;52.268;5.192;2024-03-29T06:20:04;3.00;;;0.57;;
74626;SDS011;63132;52.268;5.192;2024-03-29T06:22:30;1.45;;;0.50;;
74626;SDS011;63132;52.268;5.192;2024-03-29T06:24:56;5.13;;;1.07;;
74626;SDS011;63132;52.268;5.192;2024-03-29T06:27:29;4.07;;;0.50;;
74626;SDS011;63132;52.268;5.192;2024-03-29T06:29:58;5.07;;;0.80;;
74626;SDS011;63132;52.268;5.192;2024-03-29T06:32:24;5.45;;;0.90;;
74626;SDS011;63132;52.268;5.192;2024-03-29T06:38:21;2.60;;;0.68;;
74626;SDS011;63132;52.268;5.192;2024-03-29T06:40:46;3.67;;;0.75;;
74626;SDS011;63132;52.268;5.192;2024-03-29T06:43:21;3.83;;;0.98;;
74626;SDS011;63132;52.268;5.192;2024-03-29T06:45:49;1.23;;;0.60;;
74626;SDS011;63132;52.268;5.192;2024-03-29T06:48:14;6.80;;;0.82;;
74626;SDS011;63132;52.268;5.192;2024-03-29T06:50:40;5.60;;;0.70;;
74626;SDS011;63132;52.268;5.192;2024-03-29T06:55:31;3.80;;;0.75;;
74626;SDS011;63132;52.268;5.192;2024-03-29T06:57:56;2.77;;;0.40;;
74626;SDS011;63132;52.268;5.192;2024-03-29T07:00:24;2.88;;;0.73;;
74626;SDS011;63132;52.268;5.192;2024-03-29T07:02:50;3.67;;;0.70;;
74626;SDS011;63132;52.268;5.192;2024-03-29T07:05:15;3.57;;;0.63;;
74626;SDS011;63132;52.268;5.192;2024-03-29T07:07:49;1.65;;;0.80;;
74626;SDS011;63132;52.268;5.192;2024-03-29T07:10:15;3.38;;;0.80;;
74626;SDS011;63132;52.268;5.192;2024-03-29T07:12:40;1.25;;;0.45;;
74626;SDS011;63132;52.268;5.192;2024-03-29T07:15:08;1.30;;;0.53;;
74626;SDS011;63132;52.268;5.192;2024-03-29T07:17:34;2.38;;;0.60;;
74626;SDS011;63132;52.268;5.192;2024-03-29T07:19:59;3.15;;;0.50;;
74626;SDS011;63132;52.268;5.192;2024-03-29T07:22:25;2.10;;;0.93;;
74626;SDS011;63132;52.268;5.192;2024-03-29T07:24:50;1.17;;;0.40;;
74626;SDS011;63132;52.268;5.192;2024-03-29T07:27:15;2.60;;;0.40;;
74626;SDS011;63132;52.268;5.192;2024-03-29T07:29:43;2.10;;;0.57;;
74626;SDS011;63132;52.268;5.192;2024-03-29T07:32:09;1.60;;;0.45;;
74626;SDS011;63132;52.268;5.192;2024-03-29T07:34:41;4.40;;;0.65;;
74626;SDS011;63132;52.268;5.192;2024-03-29T07:37:09;2.75;;;0.70;;
74626;SDS011;63132;52.268;5.192;2024-03-29T07:39:40;1.77;;;0.63;;
74626;SDS011;63132;52.268;5.192;2024-03-29T07:42:07;3.33;;;0.63;;
74626;SDS011;63132;52.268;5.192;2024-03-29T07:44:33;3.13;;;0.85;;
74626;SDS011;63132;52.268;5.192;2024-03-29T07:50:30;3.45;;;0.70;;
74626;SDS011;63132;52.268;5.192;2024-03-29T07:52:55;1.38;;;0.70;;
74626;SDS011;63132;52.268;5.192;2024-03-29T07:55:23;0.70;;;0.43;;
74626;SDS011;63132;52.268;5.192;2024-03-29T07:57:52;3.08;;;0.60;;
74626;SDS011;63132;52.268;5.192;2024-03-29T08:00:21;3.03;;;0.60;;
74626;SDS011;63132;52.268;5.192;2024-03-29T08:02:50;2.13;;;0.98;;
74626;SDS011;63132;52.268;5.192;2024-03-29T08:05:17;2.17;;;0.60;;
74626;SDS011;63132;52.268;5.192;2024-03-29T08:10:11;0.88;;;0.40;;
74626;SDS011;63132;52.268;5.192;2024-03-29T08:12:39;1.13;;;0.40;;
74626;SDS011;63132;52.268;5.192;2024-03-29T08:15:05;2.85;;;0.40;;
74626;SDS011;63132;52.268;5.192;2024-03-29T08:17:33;2.90;;;0.47;;
74626;SDS011;63132;52.268;5.192;2024-03-29T08:20:03;1.60;;;0.35;;
74626;SDS011;63132;52.268;5.192;2024-03-29T08:22:32;1.23;;;0.43;;
74626;SDS011;63132;52.268;5.192;2024-03-29T08:25:01;1.95;;;0.52;;
74626;SDS011;63132;52.268;5.192;2024-03-29T08:27:27;3.85;;;0.50;;
74626;SDS011;63132;52.268;5.192;2024-03-29T08:29:55;1.15;;;0.30;;
74626;SDS011;63132;52.268;5.192;2024-03-29T08:32:23;1.90;;;0.38;;
74626;SDS011;63132;52.268;5.192;2024-03-29T08:34:52;1.45;;;0.60;;
74626;SDS011;63132;52.268;5.192;2024-03-29T08:37:17;2.47;;;0.60;;
74626;SDS011;63132;52.268;5.192;2024-03-29T08:39:43;1.63;;;0.60;;
74626;SDS011;63132;52.268;5.192;2024-03-29T08:44:37;1.65;;;0.47;;
74626;SDS011;63132;52.268;5.192;2024-03-29T08:47:08;1.90;;;0.82;;
74626;SDS011;63132;52.268;5.192;2024-03-29T08:49:35;1.63;;;0.68;;
74626;SDS011;63132;52.268;5.192;2024-03-29T08:52:00;2.63;;;0.90;;
74626;SDS011;63132;52.268;5.192;2024-03-29T08:54:30;1.67;;;0.63;;
74626;SDS011;63132;52.268;5.192;2024-03-29T08:59:22;0.88;;;0.40;;
74626;SDS011;63132;52.268;5.192;2024-03-29T09:04:15;1.50;;;0.60;;
74626;SDS011;63132;52.268;5.192;2024-03-29T09:09:16;2.80;;;0.47;;
74626;SDS011;63132;52.268;5.192;2024-03-29T09:11:41;1.58;;;0.40;;
74626;SDS011;63132;52.268;5.192;2024-03-29T09:16:34;1.95;;;0.50;;
74626;SDS011;63132;52.268;5.192;2024-03-29T09:21:25;1.90;;;0.70;;
74626;SDS011;63132;52.268;5.192;2024-03-29T09:26:42;2.40;;;0.50;;
74626;SDS011;63132;52.268;5.192;2024-03-29T09:29:08;3.83;;;0.60;;
74626;SDS011;63132;52.268;5.192;2024-03-29T09:34:26;1.77;;;0.40;;
74626;SDS011;63132;52.268;5.192;2024-03-29T09:36:51;3.55;;;0.50;;
74626;SDS011;63132;52.268;5.192;2024-03-29T09:41:43;1.27;;;0.50;;
74626;SDS011;63132;52.268;5.192;2024-03-29T09:44:10;1.40;;;0.52;;
74626;SDS011;63132;52.268;5.192;2024-03-29T09:49:04;1.63;;;0.40;;
74626;SDS011;63132;52.268;5.192;2024-03-29T09:51:33;2.88;;;0.73;;
74626;SDS011;63132;52.268;5.192;2024-03-29T09:54:01;1.63;;;0.40;;
74626;SDS011;63132;52.268;5.192;2024-03-29T09:56:29;0.55;;;0.32;;
74626;SDS011;63132;52.268;5.192;2024-03-29T10:01:27;1.60;;;0.50;;
74626;SDS011;63132;52.268;5.192;2024-03-29T10:03:56;2.22;;;0.60;;
74626;SDS011;63132;52.268;5.192;2024-03-29T10:06:34;1.75;;;0.43;;
74626;SDS011;63132;52.268;5.192;2024-03-29T10:09:00;3.25;;;0.90;;
74626;SDS011;63132;52.268;5.192;2024-03-29T10:13:51;3.70;;;0.80;;
74626;SDS011;63132;52.268;5.192;2024-03-29T10:18:49;2.85;;;0.95;;
74626;SDS011;63132;52.268;5.192;2024-03-29T10:23:42;3.10;;;1.10;;
74626;SDS011;63132;52.268;5.192;2024-03-29T10:26:08;3.47;;;0.98;;
74626;SDS011;63132;52.268;5.192;2024-03-29T10:31:04;4.78;;;1.27;;
74626;SDS011;63132;52.268;5.192;2024-03-29T10:33:33;4.22;;;1.25;;
74626;SDS011;63132;52.268;5.192;2024-03-29T10:35:59;4.43;;;1.10;;
74626;SDS011;63132;52.268;5.192;2024-03-29T10:38:33;3.30;;;1.00;;
74626;SDS011;63132;52.268;5.192;2024-03-29T10:43:29;3.00;;;1.23;;
74626;SDS011;63132;52.268;5.192;2024-03-29T10:45:55;2.47;;;0.85;;
74626;SDS011;63132;52.268;5.192;2024-03-29T10:48:25;2.17;;;1.05;;
74626;SDS011;63132;52.268;5.192;2024-03-29T10:50:59;3.35;;;1.00;;
74626;SDS011;63132;52.268;5.192;2024-03-29T10:53:26;2.20;;;0.90;;
74626;SDS011;63132;52.268;5.192;2024-03-29T10:55:58;2.15;;;0.80;;
74626;SDS011;63132;52.268;5.192;2024-03-29T10:58:25;5.35;;;0.90;;
74626;SDS011;63132;52.268;5.192;2024-03-29T11:00:56;2.83;;;1.20;;
74626;SDS011;63132;52.268;5.192;2024-03-29T11:03:32;2.75;;;0.75;;
74626;SDS011;63132;52.268;5.192;2024-03-29T11:06:05;1.58;;;0.93;;
74626;SDS011;63132;52.268;5.192;2024-03-29T11:08:32;4.72;;;1.08;;
74626;SDS011;63132;52.268;5.192;2024-03-29T11:11:02;0.88;;;0.60;;
74626;SDS011;63132;52.268;5.192;2024-03-29T11:18:20;6.00;;;1.67;;
74626;SDS011;63132;52.268;5.192;2024-03-29T11:20:46;4.95;;;1.60;;
74626;SDS011;63132;52.268;5.192;2024-03-29T11:23:16;6.20;;;1.45;;
74626;SDS011;63132;52.268;5.192;2024-03-29T11:25:54;4.40;;;1.70;;
74626;SDS011;63132;52.268;5.192;2024-03-29T11:28:32;3.47;;;1.13;;
74626;SDS011;63132;52.268;5.192;2024-03-29T11:31:25;3.70;;;1.20;;
74626;SDS011;63132;52.268;5.192;2024-03-29T11:36:22;2.47;;;1.23;;
74626;SDS011;63132;52.268;5.192;2024-03-29T11:38:52;4.65;;;1.45;;
74626;SDS011;63132;52.268;5.192;2024-03-29T11:41:19;1.98;;;1.23;;
74626;SDS011;63132;52.268;5.192;2024-03-29T11:43:52;2.25;;;0.98;;
74626;SDS011;63132;52.268;5.192;2024-03-29T11:46:21;2.63;;;1.42;;
74626;SDS011;63132;52.268;5.192;2024-03-29T11:48:47;1.88;;;0.90;;
74626;SDS011;63132;52.268;5.192;2024-03-29T11:51:15;0.77;;;0.70;;
74626;SDS011;63132;52.268;5.192;2024-03-29T11:53:42;2.08;;;1.08;;
74626;SDS011;63132;52.268;5.192;2024-03-29T11:56:08;2.15;;;1.00;;
74626;SDS011;63132;52.268;5.192;2024-03-29T11:58:34;1.95;;;0.93;;
74626;SDS011;63132;52.268;5.192;2024-03-29T12:03:27;3.00;;;1.00;;
74626;SDS011;63132;52.268;5.192;2024-03-29T12:05:54;5.57;;;1.50;;
74626;SDS011;63132;52.268;5.192;2024-03-29T12:08:27;4.55;;;1.30;;
74626;SDS011;63132;52.268;5.192;2024-03-29T12:10:54;5.43;;;1.05;;
74626;SDS011;63132;52.268;5.192;2024-03-29T12:15:44;2.22;;;1.20;;
74626;SDS011;63132;52.268;5.192;2024-03-29T12:20:37;4.32;;;2.53;;
74626;SDS011;63132;52.268;5.192;2024-03-29T12:23:05;3.65;;;1.40;;
74626;SDS011;63132;52.268;5.192;2024-03-29T12:25:32;3.95;;;2.00;;
74626;SDS011;63132;52.268;5.192;2024-03-29T12:27:58;2.95;;;1.90;;
74626;SDS011;63132;52.268;5.192;2024-03-29T12:30:25;4.80;;;1.90;;
74626;SDS011;63132;52.268;5.192;2024-03-29T12:35:31;4.20;;;2.42;;
74626;SDS011;63132;52.268;5.192;2024-03-29T12:40:27;3.72;;;2.75;;
74626;SDS011;63132;52.268;5.192;2024-03-29T12:43:06;4.95;;;2.85;;
74626;SDS011;63132;52.268;5.192;2024-03-29T12:45:35;4.35;;;2.30;;
74626;SDS011;63132;52.268;5.192;2024-03-29T12:48:02;6.47;;;2.95;;
74626;SDS011;63132;52.268;5.192;2024-03-29T12:52:53;4.13;;;2.55;;
74626;SDS011;63132;52.268;5.192;2024-03-29T12:55:20;5.38;;;2.25;;
74626;SDS011;63132;52.268;5.192;2024-03-29T13:00:12;4.82;;;2.28;;
74626;SDS011;63132;52.268;5.192;2024-03-29T13:02:37;2.83;;;2.38;;
74626;SDS011;63132;52.268;5.192;2024-03-29T13:05:03;5.07;;;2.50;;
74626;SDS011;63132;52.268;5.192;2024-03-29T13:07:29;5.00;;;2.08;;
74626;SDS011;63132;52.268;5.192;2024-03-29T13:09:55;5.78;;;2.60;;
74626;SDS011;63132;52.268;5.192;2024-03-29T13:12:21;5.15;;;2.45;;
74626;SDS011;63132;52.268;5.192;2024-03-29T13:14:46;4.13;;;2.10;;
74626;SDS011;63132;52.268;5.192;2024-03-29T13:17:12;4.00;;;2.00;;
74626;SDS011;63132;52.268;5.192;2024-03-29T13:19:37;3.13;;;1.65;;
74626;SDS011;63132;52.268;5.192;2024-03-29T13:22:02;3.33;;;1.30;;
74626;SDS011;63132;52.268;5.192;2024-03-29T13:24:28;3.13;;;1.33;;
74626;SDS011;63132;52.268;5.192;2024-03-29T13:29:19;2.38;;;1.70;;
74626;SDS011;63132;52.268;5.192;2024-03-29T13:31:45;2.78;;;1.50;;
74626;SDS011;63132;52.268;5.192;2024-03-29T13:34:10;3.03;;;1.50;;
74626;SDS011;63132;52.268;5.192;2024-03-29T13:36:39;2.40;;;1.42;;
74626;SDS011;63132;52.268;5.192;2024-03-29T13:39:05;5.68;;;2.38;;
74626;SDS011;63132;52.268;5.192;2024-03-29T13:41:32;5.05;;;2.28;;
74626;SDS011;63132;52.268;5.192;2024-03-29T13:46:24;5.45;;;1.98;;
74626;SDS011;63132;52.268;5.192;2024-03-29T13:51:15;5.82;;;2.53;;
74626;SDS011;63132;52.268;5.192;2024-03-29T13:56:07;4.45;;;2.72;;
74626;SDS011;63132;52.268;5.192;2024-03-29T14:00:58;5.40;;;2.33;;
74626;SDS011;63132;52.268;5.192;2024-03-29T14:03:25;5.72;;;2.40;;
74626;SDS011;63132;52.268;5.192;2024-03-29T14:05:50;3.25;;;2.20;;
74626;SDS011;63132;52.268;5.192;2024-03-29T14:08:16;4.45;;;2.30;;
74626;SDS011;63132;52.268;5.192;2024-03-29T14:10:42;3.60;;;2.15;;
74626;SDS011;63132;52.268;5.192;2024-03-29T14:13:07;3.88;;;1.77;;
74626;SDS011;63132;52.268;5.192;2024-03-29T14:15:34;3.17;;;1.70;;
74626;SDS011;63132;52.268;5.192;2024-03-29T14:17:59;3.90;;;1.40;;
74626;SDS011;63132;52.268;5.192;2024-03-29T14:20:25;2.78;;;1.65;;
74626;SDS011;63132;52.268;5.192;2024-03-29T14:25:21;4.47;;;2.00;;
74626;SDS011;63132;52.268;5.192;2024-03-29T14:27:46;6.25;;;1.90;;
74626;SDS011;63132;52.268;5.192;2024-03-29T14:30:19;4.43;;;2.58;;
74626;SDS011;63132;52.268;5.192;2024-03-29T14:32:46;6.78;;;2.45;;
74626;SDS011;63132;52.268;5.192;2024-03-29T14:35:13;6.72;;;2.40;;
74626;SDS011;63132;52.268;5.192;2024-03-29T14:37:39;4.07;;;2.30;;
74626;SDS011;63132;52.268;5.192;2024-03-29T14:40:05;4.95;;;2.70;;
74626;SDS011;63132;52.268;5.192;2024-03-29T14:42:31;4.38;;;2.50;;
74626;SDS011;63132;52.268;5.192;2024-03-29T14:44:56;4.20;;;2.75;;
74626;SDS011;63132;52.268;5.192;2024-03-29T14:47:23;4.88;;;2.53;;
74626;SDS011;63132;52.268;5.192;2024-03-29T14:49:48;3.78;;;2.33;;
74626;SDS011;63132;52.268;5.192;2024-03-29T14:52:14;3.17;;;2.15;;
74626;SDS011;63132;52.268;5.192;2024-03-29T14:54:39;2.72;;;2.00;;
74626;SDS011;63132;52.268;5.192;2024-03-29T14:57:05;3.10;;;1.90;;
74626;SDS011;63132;52.268;5.192;2024-03-29T14:59:30;3.95;;;2.30;;
74626;SDS011;63132;52.268;5.192;2024-03-29T15:01:57;5.32;;;2.42;;
74626;SDS011;63132;52.268;5.192;2024-03-29T15:04:23;2.70;;;1.70;;
74626;SDS011;63132;52.268;5.192;2024-03-29T15:06:48;3.28;;;2.00;;
74626;SDS011;63132;52.268;5.192;2024-03-29T15:09:14;2.70;;;1.60;;
74626;SDS011;63132;52.268;5.192;2024-03-29T15:11:40;3.33;;;1.90;;
74626;SDS011;63132;52.268;5.192;2024-03-29T15:14:05;2.05;;;1.40;;
74626;SDS011;63132;52.268;5.192;2024-03-29T15:16:31;2.78;;;1.70;;
74626;SDS011;63132;52.268;5.192;2024-03-29T15:18:56;3.35;;;1.70;;
74626;SDS011;63132;52.268;5.192;2024-03-29T15:21:31;2.70;;;1.95;;
74626;SDS011;63132;52.268;5.192;2024-03-29T15:24:22;6.05;;;1.80;;
74626;SDS011;63132;52.268;5.192;2024-03-29T15:26:47;3.88;;;1.55;;
74626;SDS011;63132;52.268;5.192;2024-03-29T15:29:15;2.42;;;1.52;;
74626;SDS011;63132;52.268;5.192;2024-03-29T15:31:41;3.00;;;1.50;;
74626;SDS011;63132;52.268;5.192;2024-03-29T15:34:08;2.10;;;1.60;;
74626;SDS011;63132;52.268;5.192;2024-03-29T15:36:38;1.83;;;1.40;;
74626;SDS011;63132;52.268;5.192;2024-03-29T15:39:04;3.10;;;1.30;;
74626;SDS011;63132;52.268;5.192;2024-03-29T15:41:33;3.17;;;1.35;;
74626;SDS011;63132;52.268;5.192;2024-03-29T15:44:00;4.38;;;1.30;;
74626;SDS011;63132;52.268;5.192;2024-03-29T15:48:51;2.55;;;1.20;;
74626;SDS011;63132;52.268;5.192;2024-03-29T15:51:16;2.90;;;0.85;;
74626;SDS011;63132;52.268;5.192;2024-03-29T15:53:42;3.45;;;0.90;;
74626;SDS011;63132;52.268;5.192;2024-03-29T15:56:09;1.75;;;1.10;;
74626;SDS011;63132;52.268;5.192;2024-03-29T15:58:34;1.60;;;1.30;;
74626;SDS011;63132;52.268;5.192;2024-03-29T16:01:01;2.22;;;0.80;;
74626;SDS011;63132;52.268;5.192;2024-03-29T16:03:28;1.77;;;0.95;;
74626;SDS011;63132;52.268;5.192;2024-03-29T16:08:23;3.55;;;1.10;;
74626;SDS011;63132;52.268;5.192;2024-03-29T16:13:24;6.53;;;1.08;;
74626;SDS011;63132;52.268;5.192;2024-03-29T16:15:50;1.77;;;0.82;;
74626;SDS011;63132;52.268;5.192;2024-03-29T16:18:17;2.15;;;0.90;;
74626;SDS011;63132;52.268;5.192;2024-03-29T16:23:08;3.95;;;0.93;;
74626;SDS011;63132;52.268;5.192;2024-03-29T16:25:34;3.95;;;1.17;;
74626;SDS011;63132;52.268;5.192;2024-03-29T16:30:26;5.35;;;1.13;;
74626;SDS011;63132;52.268;5.192;2024-03-29T16:35:17;3.88;;;0.95;;
74626;SDS011;63132;52.268;5.192;2024-03-29T16:40:09;6.68;;;1.00;;
74626;SDS011;63132;52.268;5.192;2024-03-29T16:42:35;2.58;;;0.63;;
74626;SDS011;63132;52.268;5.192;2024-03-29T16:47:26;6.40;;;1.08;;